createdAt,value
2019-02-05T00:01:36.891Z,5.08
2019-02-05T00:03:12.601Z,5.03
2019-02-05T00:04:47.142Z,5.65
2019-02-05T00:06:21.734Z,5.40
2019-02-05T00:07:56.333Z,4.80
2019-02-05T00:09:30.950Z,5.55
2019-02-05T00:11:05.537Z,6.95
2019-02-05T00:12:40.157Z,5.42
2019-02-05T00:14:15.530Z,6.33
2019-02-05T00:15:50.354Z,8.70
2019-02-05T00:17:24.894Z,4.97
2019-02-05T00:18:59.486Z,5.50
2019-02-05T00:20:34.110Z,4.03
2019-02-05T00:22:08.693Z,6.05
2019-02-05T00:23:43.213Z,3.95
2019-02-05T00:25:17.753Z,4.08
2019-02-05T00:26:52.471Z,6.15
2019-02-05T00:28:27.269Z,8.00
2019-02-05T00:30:01.798Z,4.12
2019-02-05T00:31:36.405Z,3.98
2019-02-05T00:33:11.061Z,5.12
2019-02-05T00:34:45.682Z,3.95
2019-02-05T00:36:20.261Z,4.65
2019-02-05T00:37:54.834Z,4.95
2019-02-05T00:39:29.450Z,4.80
2019-02-05T00:41:21.517Z,4.47
2019-02-05T00:42:57.129Z,3.70
2019-02-05T00:44:32.034Z,4.80
2019-02-05T00:46:06.986Z,4.25
2019-02-05T00:47:41.609Z,5.28
2019-02-05T00:49:16.225Z,4.33
2019-02-05T00:50:50.820Z,3.60
2019-02-05T00:52:25.425Z,3.87
2019-02-05T00:54:00.074Z,6.70
2019-02-05T00:55:34.681Z,3.70
2019-02-05T00:57:09.598Z,4.25
2019-02-05T00:58:44.234Z,4.22
2019-02-05T01:00:21.680Z,4.05
2019-02-05T01:01:56.287Z,7.08
2019-02-05T01:03:30.930Z,5.33
2019-02-05T01:05:05.885Z,3.58
2019-02-05T01:06:40.503Z,5.85
2019-02-05T01:08:15.099Z,4.05
2019-02-05T01:09:50.067Z,5.10
2019-02-05T01:11:24.684Z,4.10
2019-02-05T01:12:59.309Z,4.22
2019-02-05T01:14:33.893Z,4.87
2019-02-05T01:16:09.402Z,4.78
2019-02-05T01:17:44.317Z,5.55
2019-02-05T01:19:18.927Z,4.72
2019-02-05T01:20:53.526Z,4.92
2019-02-05T01:22:28.035Z,4.37
2019-02-05T01:24:02.653Z,4.20
2019-02-05T01:25:37.185Z,3.98
2019-02-05T01:27:12.061Z,3.60
2019-02-05T01:28:46.821Z,4.83
2019-02-05T01:30:24.456Z,4.37
2019-02-05T01:31:59.073Z,4.00
2019-02-05T01:33:33.613Z,6.30
2019-02-05T01:35:08.199Z,3.70
2019-02-05T01:36:42.796Z,4.12
2019-02-05T01:38:17.389Z,4.25
2019-02-05T01:39:51.989Z,3.75
2019-02-05T01:41:26.604Z,4.45
2019-02-05T01:43:01.209Z,3.80
2019-02-05T01:44:35.897Z,4.45
2019-02-05T01:46:10.511Z,4.12
2019-02-05T01:47:45.154Z,4.47
2019-02-05T01:49:19.770Z,4.92
2019-02-05T01:50:54.329Z,4.67
2019-02-05T01:52:28.953Z,5.08
2019-02-05T01:54:03.682Z,3.92
2019-02-05T01:55:39.566Z,3.80
2019-02-05T01:57:14.225Z,6.25
2019-02-05T01:58:48.821Z,4.97
2019-02-05T02:00:34.915Z,7.62
2019-02-05T02:02:09.508Z,4.62
2019-02-05T02:03:44.417Z,4.53
2019-02-05T02:05:20.094Z,3.77
2019-02-05T02:06:54.702Z,4.22
2019-02-05T02:08:29.338Z,4.10
2019-02-05T02:10:04.192Z,5.08
2019-02-05T02:11:39.112Z,4.72
2019-02-05T02:13:13.702Z,5.22
2019-02-05T02:14:48.365Z,4.90
2019-02-05T02:16:22.977Z,5.58
2019-02-05T02:17:57.883Z,6.83
2019-02-05T02:19:32.500Z,4.28
2019-02-05T02:21:07.114Z,6.05
2019-02-05T02:22:41.734Z,4.25
2019-02-05T02:24:16.301Z,5.67
2019-02-05T02:25:50.954Z,5.85
2019-02-05T02:27:25.574Z,5.67
2019-02-05T02:29:00.183Z,4.85
2019-02-05T02:30:36.824Z,6.12
2019-02-05T02:32:11.413Z,5.47
2019-02-05T02:33:45.965Z,5.75
2019-02-05T02:35:20.618Z,5.83
2019-02-05T02:36:55.440Z,6.20
2019-02-05T02:38:30.044Z,6.15
2019-02-05T02:40:05.000Z,5.53
2019-02-05T02:41:39.620Z,4.30
2019-02-05T02:43:14.356Z,6.85
2019-02-05T02:44:48.938Z,6.85
2019-02-05T02:46:23.564Z,5.97
2019-02-05T02:47:58.190Z,6.97
2019-02-05T02:49:32.817Z,6.22
2019-02-05T02:51:07.419Z,6.87
2019-02-05T02:52:42.100Z,6.22
2019-02-05T02:54:16.685Z,6.60
2019-02-05T02:55:51.386Z,5.00
2019-02-05T02:57:25.986Z,5.00
2019-02-05T02:59:00.582Z,6.25
2019-02-05T03:00:35.285Z,5.35
2019-02-05T03:02:09.991Z,7.15
2019-02-05T03:03:44.971Z,7.03
2019-02-05T03:05:21.162Z,6.35
2019-02-05T03:06:56.179Z,6.65
2019-02-05T03:08:30.869Z,6.80
2019-02-05T03:10:06.487Z,5.60
2019-02-05T03:11:41.377Z,6.37
2019-02-05T03:13:16.333Z,6.17
2019-02-05T03:14:50.940Z,5.17
2019-02-05T03:16:26.875Z,4.92
2019-02-05T03:18:01.526Z,5.87
2019-02-05T03:19:36.421Z,5.12
2019-02-05T03:21:11.060Z,6.12
2019-02-05T03:22:45.909Z,5.05
2019-02-05T03:24:20.966Z,5.53
2019-02-05T03:25:55.582Z,6.50
2019-02-05T03:27:30.185Z,5.60
2019-02-05T03:29:04.880Z,6.78
2019-02-05T03:30:39.575Z,6.45
2019-02-05T03:32:14.175Z,4.50
2019-02-05T03:33:48.815Z,5.10
2019-02-05T03:35:23.434Z,5.25
2019-02-05T03:36:58.074Z,5.03
2019-02-05T03:38:32.701Z,5.60
2019-02-05T03:40:45.992Z,5.42
2019-02-05T03:42:20.677Z,6.35
2019-02-05T03:43:55.271Z,5.47
2019-02-05T03:45:30.117Z,4.75
2019-02-05T03:47:04.715Z,5.80
2019-02-05T03:48:39.759Z,5.35
2019-02-05T03:50:14.387Z,5.58
2019-02-05T03:52:00.590Z,6.50
2019-02-05T03:53:36.190Z,5.65
2019-02-05T03:56:01.812Z,6.12
2019-02-05T03:57:48.012Z,4.80
2019-02-05T04:00:19.545Z,4.28
2019-02-05T04:02:23.070Z,5.72
2019-02-05T04:04:34.351Z,6.92
2019-02-05T04:06:32.710Z,4.95
2019-02-05T04:08:54.646Z,6.12
2019-02-05T04:11:11.110Z,5.97
2019-02-05T04:13:21.838Z,5.67
2019-02-05T04:15:22.439Z,6.53
2019-02-05T04:17:42.797Z,5.75
2019-02-05T04:19:56.481Z,6.05
2019-02-05T04:21:45.818Z,6.92
2019-02-05T04:23:57.172Z,6.85
2019-02-05T04:26:09.394Z,7.33
2019-02-05T04:28:20.151Z,7.20
2019-02-05T04:30:39.369Z,6.37
2019-02-05T04:32:49.282Z,6.33
2019-02-05T04:34:58.255Z,6.00
2019-02-05T04:37:16.570Z,6.72
2019-02-05T04:39:34.130Z,6.20
2019-02-05T04:41:32.293Z,7.75
2019-02-05T04:43:31.811Z,6.90
2019-02-05T04:45:50.417Z,6.20
2019-02-05T04:47:53.824Z,6.12
2019-02-05T04:50:06.446Z,6.85
2019-02-05T04:52:06.577Z,6.25
2019-02-05T04:54:08.058Z,7.12
2019-02-05T04:55:54.019Z,7.35
2019-02-05T04:58:09.503Z,7.55
2019-02-05T05:00:26.534Z,7.65
2019-02-05T05:02:46.627Z,8.50
2019-02-05T05:04:52.637Z,7.10
2019-02-05T05:06:44.049Z,7.05
2019-02-05T05:08:55.307Z,7.33
2019-02-05T05:10:29.937Z,7.75
2019-02-05T05:12:04.581Z,8.93
2019-02-05T05:13:39.182Z,7.30
2019-02-05T05:15:13.814Z,9.10
2019-02-05T05:16:48.441Z,7.58
2019-02-05T05:18:23.459Z,7.47
2019-02-05T05:19:58.090Z,6.83
2019-02-05T05:21:33.070Z,8.78
2019-02-05T05:23:07.725Z,8.48
2019-02-05T05:24:42.336Z,7.95
2019-02-05T05:26:17.053Z,8.80
2019-02-05T05:27:53.965Z,8.58
2019-02-05T05:29:28.610Z,8.50
2019-02-05T05:31:03.232Z,8.88
2019-02-05T05:32:37.849Z,8.43
2019-02-05T05:34:12.474Z,8.53
2019-02-05T05:35:47.376Z,8.80
2019-02-05T05:37:22.279Z,8.55
2019-02-05T05:38:56.956Z,8.35
2019-02-05T05:40:31.616Z,8.35
2019-02-05T05:42:06.240Z,8.73
2019-02-05T05:43:40.861Z,9.18
2019-02-05T05:45:15.718Z,8.55
2019-02-05T05:46:50.352Z,9.35
2019-02-05T05:48:25.409Z,10.68
2019-02-05T05:50:00.090Z,9.25
2019-02-05T05:51:34.838Z,9.68
2019-02-05T05:53:09.453Z,9.13
2019-02-05T05:54:44.037Z,9.18
2019-02-05T05:56:18.650Z,9.05
2019-02-05T05:57:53.299Z,9.65
2019-02-05T05:59:27.919Z,10.38
2019-02-05T06:01:02.533Z,9.80
2019-02-05T06:02:39.836Z,10.00
2019-02-05T06:04:13.747Z,8.90
2019-02-05T06:05:48.557Z,9.73
2019-02-05T06:07:23.223Z,8.63
2019-02-05T06:08:57.833Z,10.35
2019-02-05T06:10:32.425Z,10.50
2019-02-05T06:12:07.333Z,9.23
2019-02-05T06:13:41.953Z,9.55
2019-02-05T06:15:16.589Z,11.03
2019-02-05T06:16:51.206Z,10.00
2019-02-05T06:18:25.826Z,10.63
2019-02-05T06:20:00.438Z,10.43
2019-02-05T06:21:35.070Z,12.30
2019-02-05T06:23:09.913Z,10.48
2019-02-05T06:24:44.561Z,12.30
2019-02-05T06:26:20.267Z,11.30
2019-02-05T06:27:55.257Z,10.32
2019-02-05T06:29:29.872Z,11.20
2019-02-05T06:31:04.522Z,10.75
2019-02-05T06:32:39.157Z,12.47
2019-02-05T06:34:13.781Z,11.53
2019-02-05T06:35:48.718Z,13.70
2019-02-05T06:37:23.346Z,11.30
2019-02-05T06:38:57.970Z,10.95
2019-02-05T06:40:32.629Z,11.60
2019-02-05T06:42:07.319Z,11.22
2019-02-05T06:43:42.159Z,12.68
2019-02-05T06:45:16.821Z,11.70
2019-02-05T06:46:51.482Z,12.05
2019-02-05T06:48:26.195Z,11.30
2019-02-05T06:50:01.433Z,12.70
2019-02-05T06:51:36.068Z,12.78
2019-02-05T06:53:10.890Z,13.20
2019-02-05T06:54:45.509Z,13.70
2019-02-05T06:56:20.261Z,13.95
2019-02-05T06:57:54.961Z,11.48
2019-02-05T06:59:29.625Z,12.60
2019-02-05T07:01:04.254Z,11.73
2019-02-05T07:02:38.898Z,14.07
2019-02-05T07:04:13.529Z,12.98
2019-02-05T07:05:48.450Z,12.82
2019-02-05T07:07:23.069Z,13.53
2019-02-05T07:08:57.983Z,12.58
2019-02-05T07:10:32.654Z,13.35
2019-02-05T07:12:07.332Z,13.60
2019-02-05T07:13:41.950Z,12.55
2019-02-05T07:15:16.537Z,12.65
2019-02-05T07:16:51.163Z,12.28
2019-02-05T07:18:25.798Z,14.18
2019-02-05T07:20:00.581Z,11.85
2019-02-05T07:21:35.190Z,13.03
2019-02-05T07:23:10.286Z,13.70
2019-02-05T07:24:44.930Z,12.88
2019-02-05T07:26:19.570Z,13.05
2019-02-05T07:27:54.231Z,14.30
2019-02-05T07:29:28.858Z,11.80
2019-02-05T07:31:03.749Z,12.73
2019-02-05T07:32:38.397Z,12.93
2019-02-05T07:34:13.096Z,14.38
2019-02-05T07:35:47.731Z,13.22
2019-02-05T07:37:22.359Z,12.25
2019-02-05T07:38:57.087Z,13.25
2019-02-05T07:40:32.007Z,13.25
2019-02-05T07:42:06.669Z,13.60
2019-02-05T07:43:41.330Z,13.53
2019-02-05T07:45:17.798Z,13.08
2019-02-05T07:46:52.449Z,12.33
2019-02-05T07:48:27.081Z,14.28
2019-02-05T07:50:02.103Z,13.28
2019-02-05T07:51:36.711Z,12.65
2019-02-05T07:53:11.338Z,14.20
2019-02-05T07:54:45.960Z,14.05
2019-02-05T07:56:20.623Z,12.50
2019-02-05T07:57:55.272Z,13.75
2019-02-05T07:59:29.975Z,16.00
2019-02-05T08:01:04.638Z,14.47
2019-02-05T08:02:39.582Z,12.82
2019-02-05T08:04:14.247Z,14.00
2019-02-05T08:05:49.838Z,14.05
2019-02-05T08:07:24.463Z,14.63
2019-02-05T08:08:59.150Z,13.55
2019-02-05T08:10:33.826Z,11.83
2019-02-05T08:12:10.371Z,13.15
2019-02-05T08:13:45.043Z,15.28
2019-02-05T08:15:23.395Z,15.05
2019-02-05T08:16:58.063Z,14.68
2019-02-05T08:18:32.788Z,14.05
2019-02-05T08:20:07.813Z,12.63
2019-02-05T08:21:42.494Z,12.20
2019-02-05T08:23:17.110Z,12.05
2019-02-05T08:24:51.863Z,14.40
2019-02-05T08:26:26.730Z,16.80
2019-02-05T08:28:01.394Z,14.43
2019-02-05T08:29:36.843Z,12.40
2019-02-05T08:31:11.507Z,14.15
2019-02-05T08:32:46.138Z,16.67
2019-02-05T08:34:20.741Z,13.85
2019-02-05T08:35:55.405Z,14.58
2019-02-05T08:37:30.393Z,15.35
2019-02-05T08:39:07.711Z,15.38
2019-02-05T08:40:42.349Z,15.38
2019-02-05T08:42:17.000Z,14.03
2019-02-05T08:43:51.659Z,14.70
2019-02-05T08:45:27.439Z,15.75
2019-02-05T08:47:02.106Z,14.33
2019-02-05T08:48:36.718Z,14.40
2019-02-05T08:50:13.904Z,14.07
2019-02-05T08:51:48.583Z,14.33
2019-02-05T08:53:23.205Z,13.98
2019-02-05T08:54:58.054Z,13.65
2019-02-05T08:56:32.695Z,13.60
2019-02-05T08:58:08.891Z,14.87
2019-02-05T08:59:43.497Z,14.45
2019-02-05T09:01:18.346Z,14.68
2019-02-05T09:02:53.086Z,14.73
2019-02-05T09:04:28.651Z,13.90
2019-02-05T09:06:03.261Z,13.58
2019-02-05T09:07:38.225Z,15.70
2019-02-05T09:09:12.846Z,12.98
2019-02-05T09:10:47.514Z,14.07
2019-02-05T09:12:22.140Z,46.55
2019-02-05T09:13:56.815Z,54.90
2019-02-05T09:15:31.437Z,15.98
2019-02-05T09:17:06.085Z,15.40
2019-02-05T09:18:40.708Z,14.40
2019-02-05T09:20:16.191Z,15.03
2019-02-05T09:21:50.859Z,14.13
2019-02-05T09:23:25.474Z,12.07
2019-02-05T09:25:00.339Z,13.03
2019-02-05T09:26:35.059Z,13.15
2019-02-05T09:28:09.977Z,14.47
2019-02-05T09:29:44.643Z,13.03
2019-02-05T09:31:19.306Z,12.85
2019-02-05T09:32:55.010Z,15.00
2019-02-05T09:34:29.617Z,13.45
2019-02-05T09:36:04.223Z,13.80
2019-02-05T09:37:38.902Z,12.50
2019-02-05T09:39:13.563Z,12.20
2019-02-05T09:40:48.205Z,12.98
2019-02-05T09:42:23.303Z,14.28
2019-02-05T09:43:57.937Z,14.10
2019-02-05T09:45:32.645Z,13.80
2019-02-05T09:47:07.306Z,11.95
2019-02-05T09:48:41.933Z,13.80
2019-02-05T09:50:16.753Z,12.93
2019-02-05T09:51:51.410Z,16.25
2019-02-05T09:53:26.009Z,12.73
2019-02-05T09:55:01.745Z,13.70
2019-02-05T09:56:36.321Z,12.07
2019-02-05T09:58:11.074Z,11.53
2019-02-05T09:59:45.929Z,12.98
2019-02-05T10:01:20.629Z,12.45
2019-02-05T10:02:55.922Z,14.23
2019-02-05T10:04:30.570Z,12.53
2019-02-05T10:06:05.338Z,11.35
2019-02-05T10:07:39.999Z,12.95
2019-02-05T10:09:14.653Z,13.48
2019-02-05T10:10:49.295Z,13.65
2019-02-05T10:12:23.922Z,13.15
2019-02-05T10:13:58.560Z,10.93
2019-02-05T10:15:34.573Z,13.55
2019-02-05T10:17:09.501Z,11.78
2019-02-05T10:18:46.028Z,13.18
2019-02-05T10:20:20.416Z,16.32
2019-02-05T10:21:55.009Z,12.95
2019-02-05T10:23:29.674Z,12.15
2019-02-05T10:25:04.947Z,12.95
2019-02-05T10:26:39.590Z,12.58
2019-02-05T10:28:14.437Z,12.20
2019-02-05T10:29:57.719Z,14.07
2019-02-05T10:31:25.686Z,15.85
2019-02-05T10:33:00.394Z,13.93
2019-02-05T10:34:35.001Z,12.37
2019-02-05T10:36:09.649Z,13.08
2019-02-05T10:37:44.400Z,15.20
2019-02-05T10:39:19.059Z,16.40
2019-02-05T10:40:53.681Z,12.15
2019-02-05T10:42:28.400Z,15.65
2019-02-05T10:44:04.218Z,13.93
2019-02-05T10:45:38.895Z,11.43
2019-02-05T10:47:19.686Z,16.00
2019-02-05T10:48:54.367Z,13.22
2019-02-05T10:50:29.047Z,12.75
2019-02-05T10:52:03.773Z,10.45
2019-02-05T10:53:38.415Z,15.53
2019-02-05T10:55:14.506Z,11.48
2019-02-05T10:56:49.178Z,10.18
2019-02-05T10:58:23.858Z,12.10
2019-02-05T11:00:08.597Z,12.00
2019-02-05T11:01:35.000Z,11.65
2019-02-05T11:03:09.790Z,12.50
2019-02-05T11:04:44.457Z,13.30
2019-02-05T11:06:20.189Z,13.95
2019-02-05T11:07:55.022Z,13.55
2019-02-05T11:09:30.655Z,11.73
2019-02-05T11:11:05.333Z,12.53
2019-02-05T11:12:40.197Z,15.88
2019-02-05T11:14:14.813Z,13.08
2019-02-05T11:15:49.470Z,13.68
2019-02-05T11:17:24.129Z,13.38
2019-02-05T11:18:58.729Z,13.13
2019-02-05T11:20:33.374Z,14.83
2019-02-05T11:22:08.086Z,15.00
2019-02-05T11:23:42.702Z,14.53
2019-02-05T11:25:17.430Z,15.65
2019-02-05T11:26:53.148Z,13.83
2019-02-05T11:28:27.729Z,16.50
2019-02-05T11:30:02.569Z,16.45
2019-02-05T11:31:38.246Z,15.58
2019-02-05T11:33:12.896Z,17.27
2019-02-05T11:34:47.522Z,38.17
2019-02-05T11:36:22.198Z,19.45
2019-02-05T11:37:56.847Z,19.15
2019-02-05T11:39:31.757Z,23.35
2019-02-05T11:41:06.410Z,17.48
2019-02-05T11:42:41.371Z,15.98
2019-02-05T11:44:16.013Z,18.42
2019-02-05T11:45:50.705Z,14.80
2019-02-05T11:47:25.367Z,17.02
2019-02-05T11:49:00.026Z,17.12
2019-02-05T11:50:34.690Z,17.77
2019-02-05T11:52:11.438Z,16.27
2019-02-05T11:53:46.095Z,18.37
2019-02-05T11:55:22.445Z,18.60
2019-02-05T11:56:57.099Z,17.75
2019-02-05T11:58:31.765Z,16.25
2019-02-05T12:00:08.253Z,15.65
2019-02-05T12:01:42.922Z,18.02
2019-02-05T12:03:17.525Z,16.27
2019-02-05T12:04:52.120Z,17.02
2019-02-05T12:06:27.051Z,17.73
2019-02-05T12:08:01.668Z,13.95
2019-02-05T12:09:36.304Z,18.70
2019-02-05T12:11:10.943Z,14.95
2019-02-05T12:12:45.569Z,16.00
2019-02-05T12:14:20.205Z,18.85
2019-02-05T12:15:54.942Z,14.55
2019-02-05T12:17:29.997Z,14.45
2019-02-05T12:19:04.678Z,16.67
2019-02-05T12:20:39.306Z,19.20
2019-02-05T12:22:13.971Z,17.35
2019-02-05T12:23:48.653Z,16.25
2019-02-05T12:25:23.298Z,16.27
2019-02-05T12:26:57.950Z,18.48
2019-02-05T12:28:32.576Z,18.15
2019-02-05T12:30:44.270Z,15.93
2019-02-05T12:32:12.162Z,17.37
2019-02-05T12:33:46.798Z,16.48
2019-02-05T12:35:21.447Z,17.30
2019-02-05T12:36:58.091Z,18.15
2019-02-05T12:38:32.767Z,16.25
2019-02-05T12:40:08.609Z,14.50
2019-02-05T12:41:43.648Z,17.82
2019-02-05T12:43:18.296Z,14.50
2019-02-05T12:44:52.950Z,16.87
2019-02-05T12:46:27.695Z,17.37
2019-02-05T12:48:02.622Z,19.40
2019-02-05T12:49:37.564Z,17.25
2019-02-05T12:51:12.151Z,16.55
2019-02-05T12:52:46.830Z,19.23
2019-02-05T12:54:21.445Z,18.30
2019-02-05T12:55:56.130Z,15.55
2019-02-05T12:57:30.807Z,18.87
2019-02-05T12:59:05.981Z,18.65
2019-02-05T13:00:56.895Z,19.12
2019-02-05T13:02:22.163Z,17.07
2019-02-05T13:03:56.894Z,17.80
2019-02-05T13:05:31.808Z,16.10
2019-02-05T13:07:06.822Z,17.90
2019-02-05T13:08:41.415Z,17.52
2019-02-05T13:10:17.872Z,19.50
2019-02-05T13:11:52.554Z,16.62
2019-02-05T13:13:27.502Z,17.30
2019-02-05T13:15:02.113Z,17.02
2019-02-05T13:16:36.811Z,16.55
2019-02-05T13:18:11.657Z,15.78
2019-02-05T13:19:46.650Z,15.70
2019-02-05T13:21:21.454Z,20.00
2019-02-05T13:22:56.162Z,14.13
2019-02-05T13:24:30.766Z,16.40
2019-02-05T13:26:06.078Z,15.80
2019-02-05T13:27:40.775Z,18.15
2019-02-05T13:29:15.385Z,18.80
2019-02-05T13:30:50.150Z,18.07
2019-02-05T13:32:24.910Z,16.48
2019-02-05T13:33:59.551Z,16.05
2019-02-05T13:35:34.483Z,15.20
2019-02-05T13:37:09.158Z,16.85
2019-02-05T13:38:43.788Z,14.85
2019-02-05T13:40:20.436Z,15.23
2019-02-05T13:41:55.126Z,15.90
2019-02-05T13:43:29.791Z,15.25
2019-02-05T13:45:05.149Z,14.20
2019-02-05T13:46:39.797Z,17.98
2019-02-05T13:48:14.447Z,16.40
2019-02-05T13:49:49.109Z,17.17
2019-02-05T13:51:23.789Z,18.02
2019-02-05T13:52:58.534Z,18.80
2019-02-05T13:54:33.205Z,20.25
2019-02-05T13:56:08.999Z,16.25
2019-02-05T13:57:43.695Z,14.90
2019-02-05T13:59:18.378Z,17.32
2019-02-05T14:00:54.818Z,16.73
2019-02-05T14:02:29.421Z,16.50
2019-02-05T14:04:03.975Z,14.80
2019-02-05T14:05:39.095Z,16.93
2019-02-05T14:07:13.735Z,16.82
2019-02-05T14:08:48.329Z,18.42
2019-02-05T14:10:25.323Z,18.23
2019-02-05T14:11:59.999Z,16.73
2019-02-05T14:13:34.675Z,15.15
2019-02-05T14:15:10.384Z,15.95
2019-02-05T14:16:44.981Z,20.20
2019-02-05T14:18:22.614Z,17.70
2019-02-05T14:19:56.198Z,18.12
2019-02-05T14:21:30.779Z,15.48
2019-02-05T14:23:05.427Z,16.42
2019-02-05T14:24:40.039Z,20.50
2019-02-05T14:26:14.701Z,17.92
2019-02-05T14:27:49.343Z,20.60
2019-02-05T14:29:23.970Z,20.85
2019-02-05T14:30:58.887Z,18.82
2019-02-05T14:32:33.533Z,21.57
2019-02-05T14:34:08.126Z,19.98
2019-02-05T14:35:42.796Z,17.27
2019-02-05T14:37:17.390Z,19.55
2019-02-05T14:38:53.100Z,19.17
2019-02-05T14:40:27.839Z,22.80
2019-02-05T14:42:02.513Z,21.55
2019-02-05T14:43:37.510Z,21.27
2019-02-05T14:45:12.180Z,20.27
2019-02-05T14:46:46.853Z,20.90
2019-02-05T14:48:21.469Z,20.85
2019-02-05T14:49:56.072Z,18.77
2019-02-05T14:51:30.710Z,23.30
2019-02-05T14:53:07.701Z,19.48
2019-02-05T14:54:42.300Z,23.47
2019-02-05T14:56:17.286Z,23.02
2019-02-05T14:57:52.045Z,19.25
2019-02-05T14:59:26.759Z,25.25
2019-02-05T15:01:01.361Z,22.32
2019-02-05T15:02:36.026Z,23.65
2019-02-05T15:04:10.642Z,23.98
2019-02-05T15:05:46.380Z,20.23
2019-02-05T15:07:21.466Z,22.02
2019-02-05T15:08:56.349Z,18.65
2019-02-05T15:10:30.940Z,21.23
2019-02-05T15:12:05.642Z,21.23
2019-02-05T15:13:40.271Z,19.52
2019-02-05T15:15:16.322Z,21.48
2019-02-05T15:16:50.937Z,17.90
2019-02-05T15:18:25.597Z,17.92
2019-02-05T15:20:00.336Z,23.32
2019-02-05T15:21:35.174Z,24.15
2019-02-05T15:23:09.973Z,23.42
2019-02-05T15:24:46.375Z,21.68
2019-02-05T15:26:20.985Z,21.65
2019-02-05T15:27:55.637Z,23.35
2019-02-05T15:29:30.937Z,20.12
2019-02-05T15:31:05.586Z,21.17
2019-02-05T15:32:49.173Z,21.15
2019-02-05T15:34:25.990Z,22.77
2019-02-05T15:36:03.205Z,22.40
2019-02-05T15:37:38.347Z,20.77
2019-02-05T15:39:14.228Z,21.68
2019-02-05T15:40:48.867Z,21.37
2019-02-05T15:42:23.535Z,20.27
2019-02-05T15:44:00.648Z,19.45
2019-02-05T15:45:34.448Z,21.57
2019-02-05T15:47:09.138Z,21.10
2019-02-05T15:48:43.726Z,22.40
2019-02-05T15:50:18.356Z,22.05
2019-02-05T15:51:53.127Z,19.82
2019-02-05T15:53:27.730Z,22.22
2019-02-05T15:55:02.346Z,22.50
2019-02-05T15:56:36.972Z,22.87
2019-02-05T15:58:12.015Z,20.92
2019-02-05T15:59:46.638Z,23.27
2019-02-05T16:01:21.303Z,18.23
2019-02-05T16:02:55.906Z,20.05
2019-02-05T16:04:30.484Z,20.80
2019-02-05T16:06:05.167Z,20.77
2019-02-05T16:07:39.819Z,22.30
2019-02-05T16:09:14.442Z,22.65
2019-02-05T16:10:49.091Z,20.37
2019-02-05T16:12:23.801Z,24.98
2019-02-05T16:13:58.512Z,22.50
2019-02-05T16:15:33.488Z,22.95
2019-02-05T16:17:08.147Z,23.38
2019-02-05T16:18:42.904Z,18.98
2019-02-05T16:20:17.602Z,19.85
2019-02-05T16:21:53.939Z,20.08
2019-02-05T16:23:28.574Z,22.10
2019-02-05T16:25:03.248Z,18.00
2019-02-05T16:26:37.926Z,21.23
2019-02-05T16:28:12.862Z,20.77
2019-02-05T16:29:47.491Z,20.55
2019-02-05T16:31:22.118Z,27.65
2019-02-05T16:32:56.781Z,18.60
2019-02-05T16:34:31.313Z,20.05
2019-02-05T16:36:05.959Z,19.27
2019-02-05T16:37:40.590Z,20.88
2019-02-05T16:39:15.216Z,19.25
2019-02-05T16:40:50.390Z,18.87
2019-02-05T16:42:24.994Z,19.73
2019-02-05T16:43:59.633Z,20.10
2019-02-05T16:45:34.334Z,17.92
2019-02-05T16:47:09.628Z,20.77
2019-02-05T16:48:44.366Z,22.35
2019-02-05T16:50:45.826Z,21.55
2019-02-05T16:52:20.658Z,22.62
2019-02-05T16:53:55.310Z,16.90
2019-02-05T16:55:29.984Z,20.32
2019-02-05T16:57:04.642Z,24.52
2019-02-05T16:58:39.286Z,20.32
2019-02-05T17:00:19.486Z,19.67
2019-02-05T17:01:57.103Z,20.02
2019-02-05T17:03:30.357Z,18.45
2019-02-05T17:05:05.535Z,17.92
2019-02-05T17:06:40.198Z,20.95
2019-02-05T17:08:14.887Z,20.37
2019-02-05T17:09:49.511Z,16.93
2019-02-05T17:11:24.187Z,18.70
2019-02-05T17:12:59.275Z,16.70
2019-02-05T17:14:33.853Z,19.70
2019-02-05T17:16:08.422Z,21.25
2019-02-05T17:17:43.179Z,22.60
2019-02-05T17:19:18.170Z,17.57
2019-02-05T17:20:52.707Z,19.87
2019-02-05T17:22:27.325Z,22.13
2019-02-05T17:24:02.005Z,19.73
2019-02-05T17:25:37.213Z,21.42
2019-02-05T17:27:11.833Z,20.25
2019-02-05T17:28:46.531Z,19.30
2019-02-05T17:30:23.242Z,17.35
2019-02-05T17:31:57.891Z,19.92
2019-02-05T17:33:32.854Z,17.17
2019-02-05T17:35:07.839Z,18.17
2019-02-05T17:36:43.473Z,17.40
2019-02-05T17:38:18.514Z,17.92
2019-02-05T17:39:53.182Z,17.20
2019-02-05T17:41:27.784Z,17.35
2019-02-05T17:43:02.480Z,17.73
2019-02-05T17:44:37.093Z,16.62
2019-02-05T17:46:12.090Z,17.85
2019-02-05T17:47:46.715Z,15.50
2019-02-05T17:49:21.423Z,17.35
2019-02-05T17:50:56.374Z,15.40
2019-02-05T17:52:31.930Z,15.60
2019-02-05T17:54:06.481Z,18.75
2019-02-05T17:55:41.093Z,15.23
2019-02-05T17:57:17.328Z,14.15
2019-02-05T17:58:51.963Z,16.32
2019-02-05T18:00:31.505Z,17.67
2019-02-05T18:02:06.160Z,17.52
2019-02-05T18:03:40.804Z,18.35
2019-02-05T18:05:15.887Z,17.20
2019-02-05T18:06:50.546Z,16.35
2019-02-05T18:08:25.239Z,15.05
2019-02-05T18:09:59.946Z,14.28
2019-02-05T18:11:35.186Z,27.27
2019-02-05T18:13:09.816Z,17.15
2019-02-05T18:14:44.486Z,17.45
2019-02-05T18:16:20.194Z,16.15
2019-02-05T18:17:54.938Z,13.38
2019-02-05T18:19:29.642Z,15.85
2019-02-05T18:21:04.409Z,11.68
2019-02-05T18:22:39.326Z,13.95
2019-02-05T18:24:14.249Z,15.20
2019-02-05T18:25:48.851Z,16.93
2019-02-05T18:27:23.463Z,14.25
2019-02-05T18:28:58.115Z,14.50
2019-02-05T18:30:32.990Z,12.90
2019-02-05T18:32:07.609Z,13.30
2019-02-05T18:33:42.242Z,13.60
2019-02-05T18:35:16.847Z,14.78
2019-02-05T18:36:51.802Z,13.88
2019-02-05T18:38:26.514Z,14.63
2019-02-05T18:40:01.305Z,16.87
2019-02-05T18:41:41.773Z,13.83
2019-02-05T18:43:16.390Z,15.72
2019-02-05T18:44:51.338Z,16.75
2019-02-05T18:46:26.074Z,14.50
2019-02-05T18:48:00.711Z,14.20
2019-02-05T18:49:35.638Z,16.77
2019-02-05T18:51:10.290Z,16.35
2019-02-05T18:52:45.141Z,14.23
2019-02-05T18:54:19.714Z,16.75
2019-02-05T18:55:54.315Z,20.97
2019-02-05T18:57:28.966Z,19.67
2019-02-05T18:59:03.566Z,17.67
2019-02-05T19:00:39.993Z,21.05
2019-02-05T19:02:14.851Z,19.42
2019-02-05T19:03:49.457Z,16.27
2019-02-05T19:05:24.074Z,20.95
2019-02-05T19:06:58.790Z,23.70
2019-02-05T19:08:33.410Z,19.10
2019-02-05T19:10:08.773Z,23.52
2019-02-05T19:11:43.484Z,19.87
2019-02-05T19:13:31.590Z,18.23
2019-02-05T19:15:08.612Z,21.33
2019-02-05T19:16:44.082Z,18.25
2019-02-05T19:18:19.914Z,20.88
2019-02-05T19:19:55.685Z,19.55
2019-02-05T19:21:30.790Z,20.92
2019-02-05T19:23:07.815Z,19.02
2019-02-05T19:24:59.209Z,17.98
2019-02-05T19:26:42.819Z,19.98
2019-02-05T19:28:24.022Z,20.85
2019-02-05T19:30:00.469Z,19.25
2019-02-05T19:31:38.428Z,22.65
2019-02-05T19:33:13.881Z,19.30
2019-02-05T19:34:49.326Z,20.50
2019-02-05T19:36:24.993Z,22.60
2019-02-05T19:38:00.002Z,21.68
2019-02-05T19:39:35.128Z,21.65
2019-02-05T19:41:10.911Z,20.60
2019-02-05T19:42:47.126Z,18.30
2019-02-05T19:44:22.205Z,20.85
2019-02-05T19:46:05.288Z,21.70
2019-02-05T19:47:40.832Z,21.10
2019-02-05T19:49:24.693Z,20.40
2019-02-05T19:51:00.369Z,20.57
2019-02-05T19:52:35.713Z,21.30
2019-02-05T19:54:10.831Z,21.33
2019-02-05T19:55:46.294Z,27.27
2019-02-05T19:57:21.898Z,31.10
2019-02-05T19:58:57.665Z,29.82
2019-02-05T20:00:32.616Z,26.27
2019-02-05T20:02:08.243Z,25.68
2019-02-05T20:03:44.221Z,26.48
2019-02-05T20:05:19.449Z,24.52
2019-02-05T20:06:56.469Z,25.43
2019-02-05T20:08:33.370Z,25.62
2019-02-05T20:10:09.417Z,26.10
2019-02-05T20:11:44.371Z,23.77
2019-02-05T20:13:19.743Z,28.02
2019-02-05T20:14:54.884Z,25.02
2019-02-05T20:16:30.993Z,25.77
2019-02-05T20:18:05.867Z,29.37
2019-02-05T20:19:42.080Z,27.60
2019-02-05T20:21:17.321Z,26.10
2019-02-05T20:22:52.818Z,25.90
2019-02-05T20:24:28.078Z,28.65
2019-02-05T20:26:03.106Z,29.60
2019-02-05T20:27:37.825Z,29.15
2019-02-05T20:29:12.526Z,29.37
2019-02-05T20:30:47.666Z,27.58
2019-02-05T20:32:23.523Z,27.80
2019-02-05T20:33:59.107Z,29.52
2019-02-05T20:35:34.506Z,29.48
2019-02-05T20:37:10.013Z,27.02
2019-02-05T20:38:45.492Z,28.00
2019-02-05T20:40:20.866Z,31.97
2019-02-05T20:41:56.490Z,30.65
2019-02-05T20:43:32.441Z,32.38
2019-02-05T20:45:07.994Z,29.35
2019-02-05T20:46:43.178Z,32.20
2019-02-05T20:48:18.551Z,29.75
2019-02-05T20:49:54.091Z,31.15
2019-02-05T20:51:29.158Z,29.12
2019-02-05T20:53:13.630Z,31.02
2019-02-05T20:54:41.841Z,31.25
2019-02-05T20:56:17.439Z,30.50
2019-02-05T20:57:54.071Z,25.02